sensor_id;sensor_type;location;lat;lon;timestamp;P1;durP1;ratioP1;P2;durP2;ratioP2
64282;SDS011;50497;50.720;-2.084;2023-06-22T00:01:47;16.02;;;7.38;;
64282;SDS011;50497;50.720;-2.084;2023-06-22T00:04:13;14.02;;;6.68;;
64282;SDS011;50497;50.720;-2.084;2023-06-22T00:06:38;17.55;;;7.38;;
64282;SDS011;50497;50.720;-2.084;2023-06-22T00:09:03;17.20;;;7.20;;
64282;SDS011;50497;50.720;-2.084;2023-06-22T00:11:29;17.25;;;7.57;;
64282;SDS011;50497;50.720;-2.084;2023-06-22T00:13:56;18.27;;;7.75;;
64282;SDS011;50497;50.720;-2.084;2023-06-22T00:16:21;16.02;;;7.30;;
64282;SDS011;50497;50.720;-2.084;2023-06-22T00:18:47;14.43;;;7.32;;
64282;SDS011;50497;50.720;-2.084;2023-06-22T00:21:13;17.13;;;7.28;;
64282;SDS011;50497;50.720;-2.084;2023-06-22T00:23:39;15.13;;;6.30;;
64282;SDS011;50497;50.720;-2.084;2023-06-22T00:26:04;15.93;;;6.80;;
64282;SDS011;50497;50.720;-2.084;2023-06-22T00:28:30;13.13;;;5.88;;
64282;SDS011;50497;50.720;-2.084;2023-06-22T00:30:55;15.52;;;6.65;;
64282;SDS011;50497;50.720;-2.084;2023-06-22T00:33:20;15.48;;;6.47;;
64282;SDS011;50497;50.720;-2.084;2023-06-22T00:35:46;14.05;;;6.45;;
64282;SDS011;50497;50.720;-2.084;2023-06-22T00:38:11;12.18;;;6.35;;
64282;SDS011;50497;50.720;-2.084;2023-06-22T00:40:37;14.65;;;6.82;;
64282;SDS011;50497;50.720;-2.084;2023-06-22T00:43:03;11.85;;;6.40;;
64282;SDS011;50497;50.720;-2.084;2023-06-22T00:45:30;14.35;;;5.85;;
64282;SDS011;50497;50.720;-2.084;2023-06-22T00:47:58;11.38;;;5.75;;
64282;SDS011;50497;50.720;-2.084;2023-06-22T00:50:28;12.40;;;5.93;;
64282;SDS011;50497;50.720;-2.084;2023-06-22T00:52:59;12.43;;;6.13;;
64282;SDS011;50497;50.720;-2.084;2023-06-22T00:55:26;11.45;;;5.88;;
64282;SDS011;50497;50.720;-2.084;2023-06-22T00:57:52;14.55;;;5.95;;
64282;SDS011;50497;50.720;-2.084;2023-06-22T01:00:22;12.77;;;6.13;;
64282;SDS011;50497;50.720;-2.084;2023-06-22T01:02:50;14.13;;;6.55;;
64282;SDS011;50497;50.720;-2.084;2023-06-22T01:05:20;14.77;;;6.68;;
64282;SDS011;50497;50.720;-2.084;2023-06-22T01:08:00;13.38;;;6.10;;
64282;SDS011;50497;50.720;-2.084;2023-06-22T01:10:40;13.50;;;6.40;;
64282;SDS011;50497;50.720;-2.084;2023-06-22T01:15:43;13.70;;;6.22;;
64282;SDS011;50497;50.720;-2.084;2023-06-22T01:18:14;13.18;;;6.40;;
64282;SDS011;50497;50.720;-2.084;2023-06-22T01:20:42;12.55;;;6.25;;
64282;SDS011;50497;50.720;-2.084;2023-06-22T01:23:20;12.32;;;6.03;;
64282;SDS011;50497;50.720;-2.084;2023-06-22T01:29:17;12.52;;;6.20;;
64282;SDS011;50497;50.720;-2.084;2023-06-22T01:31:45;13.35;;;6.68;;
64282;SDS011;50497;50.720;-2.084;2023-06-22T01:34:12;13.50;;;6.03;;
64282;SDS011;50497;50.720;-2.084;2023-06-22T01:36:39;14.85;;;6.28;;
64282;SDS011;50497;50.720;-2.084;2023-06-22T01:39:05;14.05;;;6.18;;
64282;SDS011;50497;50.720;-2.084;2023-06-22T01:41:34;14.15;;;6.68;;
64282;SDS011;50497;50.720;-2.084;2023-06-22T01:44:02;12.30;;;5.60;;
64282;SDS011;50497;50.720;-2.084;2023-06-22T01:46:31;12.68;;;6.30;;
64282;SDS011;50497;50.720;-2.084;2023-06-22T01:48:58;13.05;;;6.35;;
64282;SDS011;50497;50.720;-2.084;2023-06-22T01:51:23;14.20;;;6.45;;
64282;SDS011;50497;50.720;-2.084;2023-06-22T01:53:49;15.43;;;6.45;;
64282;SDS011;50497;50.720;-2.084;2023-06-22T01:56:16;14.10;;;6.80;;
64282;SDS011;50497;50.720;-2.084;2023-06-22T01:58:47;13.93;;;6.72;;
64282;SDS011;50497;50.720;-2.084;2023-06-22T02:01:17;14.13;;;6.72;;
64282;SDS011;50497;50.720;-2.084;2023-06-22T02:03:52;11.48;;;5.95;;
64282;SDS011;50497;50.720;-2.084;2023-06-22T02:06:26;12.30;;;6.18;;
64282;SDS011;50497;50.720;-2.084;2023-06-22T02:09:00;12.95;;;5.95;;
64282;SDS011;50497;50.720;-2.084;2023-06-22T02:11:27;12.82;;;6.40;;
64282;SDS011;50497;50.720;-2.084;2023-06-22T02:13:56;15.45;;;6.38;;
64282;SDS011;50497;50.720;-2.084;2023-06-22T02:16:22;13.43;;;6.53;;
64282;SDS011;50497;50.720;-2.084;2023-06-22T02:18:48;12.82;;;6.25;;
64282;SDS011;50497;50.720;-2.084;2023-06-22T02:21:18;12.25;;;6.03;;
64282;SDS011;50497;50.720;-2.084;2023-06-22T02:23:44;11.63;;;5.82;;
64282;SDS011;50497;50.720;-2.084;2023-06-22T02:26:10;13.88;;;6.35;;
64282;SDS011;50497;50.720;-2.084;2023-06-22T02:31:02;12.25;;;5.93;;
64282;SDS011;50497;50.720;-2.084;2023-06-22T02:33:27;13.95;;;6.55;;
64282;SDS011;50497;50.720;-2.084;2023-06-22T02:35:53;13.30;;;6.60;;
64282;SDS011;50497;50.720;-2.084;2023-06-22T02:38:18;12.88;;;6.10;;
64282;SDS011;50497;50.720;-2.084;2023-06-22T02:40:45;11.52;;;5.80;;
64282;SDS011;50497;50.720;-2.084;2023-06-22T02:43:10;12.13;;;6.25;;
64282;SDS011;50497;50.720;-2.084;2023-06-22T02:45:35;15.23;;;6.35;;
64282;SDS011;50497;50.720;-2.084;2023-06-22T02:48:01;13.27;;;6.47;;
64282;SDS011;50497;50.720;-2.084;2023-06-22T02:50:26;12.80;;;6.38;;
64282;SDS011;50497;50.720;-2.084;2023-06-22T02:52:52;14.73;;;5.95;;
64282;SDS011;50497;50.720;-2.084;2023-06-22T02:55:17;11.88;;;5.95;;
64282;SDS011;50497;50.720;-2.084;2023-06-22T02:57:43;13.02;;;6.22;;
64282;SDS011;50497;50.720;-2.084;2023-06-22T03:02:42;13.52;;;6.20;;
64282;SDS011;50497;50.720;-2.084;2023-06-22T03:05:09;13.35;;;6.35;;
64282;SDS011;50497;50.720;-2.084;2023-06-22T03:07:38;12.05;;;6.30;;
64282;SDS011;50497;50.720;-2.084;2023-06-22T03:10:04;14.55;;;6.80;;
64282;SDS011;50497;50.720;-2.084;2023-06-22T03:12:30;14.07;;;6.50;;
64282;SDS011;50497;50.720;-2.084;2023-06-22T03:14:55;15.70;;;7.00;;
64282;SDS011;50497;50.720;-2.084;2023-06-22T03:17:20;15.93;;;6.93;;
64282;SDS011;50497;50.720;-2.084;2023-06-22T03:19:46;13.68;;;6.63;;
64282;SDS011;50497;50.720;-2.084;2023-06-22T03:22:11;15.63;;;6.65;;
64282;SDS011;50497;50.720;-2.084;2023-06-22T03:24:36;15.18;;;7.28;;
64282;SDS011;50497;50.720;-2.084;2023-06-22T03:27:04;16.83;;;7.25;;
64282;SDS011;50497;50.720;-2.084;2023-06-22T03:29:30;16.20;;;6.90;;
64282;SDS011;50497;50.720;-2.084;2023-06-22T03:31:56;15.48;;;7.45;;
64282;SDS011;50497;50.720;-2.084;2023-06-22T03:34:21;13.52;;;7.10;;
64282;SDS011;50497;50.720;-2.084;2023-06-22T03:36:46;16.73;;;7.38;;
64282;SDS011;50497;50.720;-2.084;2023-06-22T03:39:12;18.05;;;7.32;;
64282;SDS011;50497;50.720;-2.084;2023-06-22T03:41:37;15.23;;;7.47;;
64282;SDS011;50497;50.720;-2.084;2023-06-22T03:44:03;17.55;;;7.60;;
64282;SDS011;50497;50.720;-2.084;2023-06-22T03:46:29;17.38;;;8.02;;
64282;SDS011;50497;50.720;-2.084;2023-06-22T03:48:54;19.30;;;8.25;;
64282;SDS011;50497;50.720;-2.084;2023-06-22T03:51:20;19.98;;;8.00;;
64282;SDS011;50497;50.720;-2.084;2023-06-22T03:53:45;19.40;;;7.65;;
64282;SDS011;50497;50.720;-2.084;2023-06-22T03:56:10;15.60;;;7.45;;
64282;SDS011;50497;50.720;-2.084;2023-06-22T03:58:36;16.38;;;6.65;;
64282;SDS011;50497;50.720;-2.084;2023-06-22T04:01:01;15.60;;;6.75;;
64282;SDS011;50497;50.720;-2.084;2023-06-22T04:03:27;14.25;;;6.70;;
64282;SDS011;50497;50.720;-2.084;2023-06-22T04:05:52;15.38;;;6.90;;
64282;SDS011;50497;50.720;-2.084;2023-06-22T04:08:18;14.68;;;6.75;;
64282;SDS011;50497;50.720;-2.084;2023-06-22T04:10:43;15.52;;;6.70;;
64282;SDS011;50497;50.720;-2.084;2023-06-22T04:15:35;13.93;;;6.38;;
64282;SDS011;50497;50.720;-2.084;2023-06-22T04:18:00;13.63;;;6.80;;
64282;SDS011;50497;50.720;-2.084;2023-06-22T04:20:26;14.52;;;6.97;;
64282;SDS011;50497;50.720;-2.084;2023-06-22T04:22:52;16.60;;;7.10;;
64282;SDS011;50497;50.720;-2.084;2023-06-22T04:25:18;16.23;;;7.30;;
64282;SDS011;50497;50.720;-2.084;2023-06-22T04:27:45;17.15;;;7.30;;
64282;SDS011;50497;50.720;-2.084;2023-06-22T04:30:10;14.18;;;6.68;;
64282;SDS011;50497;50.720;-2.084;2023-06-22T04:32:37;18.33;;;7.38;;
64282;SDS011;50497;50.720;-2.084;2023-06-22T04:35:03;18.83;;;8.20;;
64282;SDS011;50497;50.720;-2.084;2023-06-22T04:37:32;20.52;;;7.85;;
64282;SDS011;50497;50.720;-2.084;2023-06-22T04:39:57;19.10;;;8.02;;
64282;SDS011;50497;50.720;-2.084;2023-06-22T04:42:23;17.70;;;9.02;;
64282;SDS011;50497;50.720;-2.084;2023-06-22T04:44:50;20.90;;;8.10;;
64282;SDS011;50497;50.720;-2.084;2023-06-22T04:47:15;20.67;;;8.88;;
64282;SDS011;50497;50.720;-2.084;2023-06-22T04:49:40;20.15;;;8.18;;
64282;SDS011;50497;50.720;-2.084;2023-06-22T04:52:08;18.83;;;8.73;;
64282;SDS011;50497;50.720;-2.084;2023-06-22T04:54:35;24.75;;;8.98;;
64282;SDS011;50497;50.720;-2.084;2023-06-22T04:57:02;18.25;;;8.38;;
64282;SDS011;50497;50.720;-2.084;2023-06-22T04:59:30;18.73;;;8.13;;
64282;SDS011;50497;50.720;-2.084;2023-06-22T05:02:00;18.73;;;8.35;;
64282;SDS011;50497;50.720;-2.084;2023-06-22T05:04:26;16.13;;;7.97;;
64282;SDS011;50497;50.720;-2.084;2023-06-22T05:06:53;18.52;;;8.55;;
64282;SDS011;50497;50.720;-2.084;2023-06-22T05:09:19;15.27;;;7.68;;
64282;SDS011;50497;50.720;-2.084;2023-06-22T05:11:45;18.52;;;8.13;;
64282;SDS011;50497;50.720;-2.084;2023-06-22T05:14:12;15.18;;;7.28;;
64282;SDS011;50497;50.720;-2.084;2023-06-22T05:19:03;16.33;;;7.50;;
64282;SDS011;50497;50.720;-2.084;2023-06-22T05:21:29;15.48;;;6.93;;
64282;SDS011;50497;50.720;-2.084;2023-06-22T05:26:25;16.10;;;6.97;;
64282;SDS011;50497;50.720;-2.084;2023-06-22T05:28:51;16.30;;;7.75;;
64282;SDS011;50497;50.720;-2.084;2023-06-22T05:33:45;14.77;;;7.13;;
64282;SDS011;50497;50.720;-2.084;2023-06-22T05:36:11;16.38;;;7.45;;
64282;SDS011;50497;50.720;-2.084;2023-06-22T05:38:37;13.95;;;7.32;;
64282;SDS011;50497;50.720;-2.084;2023-06-22T05:41:03;16.33;;;7.18;;
64282;SDS011;50497;50.720;-2.084;2023-06-22T05:43:29;15.40;;;6.93;;
64282;SDS011;50497;50.720;-2.084;2023-06-22T05:45:54;15.73;;;6.85;;
64282;SDS011;50497;50.720;-2.084;2023-06-22T05:48:19;16.63;;;7.72;;
64282;SDS011;50497;50.720;-2.084;2023-06-22T05:50:45;17.38;;;7.90;;
64282;SDS011;50497;50.720;-2.084;2023-06-22T05:53:10;14.43;;;6.97;;
64282;SDS011;50497;50.720;-2.084;2023-06-22T05:55:36;14.60;;;6.75;;
64282;SDS011;50497;50.720;-2.084;2023-06-22T05:58:01;15.05;;;7.15;;
64282;SDS011;50497;50.720;-2.084;2023-06-22T06:00:29;16.58;;;7.47;;
64282;SDS011;50497;50.720;-2.084;2023-06-22T06:02:55;18.55;;;7.45;;
64282;SDS011;50497;50.720;-2.084;2023-06-22T06:07:48;15.65;;;7.05;;
64282;SDS011;50497;50.720;-2.084;2023-06-22T06:10:13;15.77;;;7.00;;
64282;SDS011;50497;50.720;-2.084;2023-06-22T06:12:39;16.65;;;7.43;;
64282;SDS011;50497;50.720;-2.084;2023-06-22T06:15:04;15.90;;;7.15;;
64282;SDS011;50497;50.720;-2.084;2023-06-22T06:17:30;16.42;;;7.80;;
64282;SDS011;50497;50.720;-2.084;2023-06-22T06:19:56;15.80;;;7.45;;
64282;SDS011;50497;50.720;-2.084;2023-06-22T06:22:23;16.13;;;7.32;;
64282;SDS011;50497;50.720;-2.084;2023-06-22T06:24:49;15.95;;;7.65;;
64282;SDS011;50497;50.720;-2.084;2023-06-22T06:27:14;15.07;;;7.45;;
64282;SDS011;50497;50.720;-2.084;2023-06-22T06:29:40;15.68;;;6.80;;
64282;SDS011;50497;50.720;-2.084;2023-06-22T06:32:06;14.60;;;7.47;;
64282;SDS011;50497;50.720;-2.084;2023-06-22T06:34:31;15.95;;;7.57;;
64282;SDS011;50497;50.720;-2.084;2023-06-22T06:36:57;15.00;;;7.30;;
64282;SDS011;50497;50.720;-2.084;2023-06-22T06:39:22;13.85;;;7.10;;
64282;SDS011;50497;50.720;-2.084;2023-06-22T06:41:48;12.85;;;6.65;;
64282;SDS011;50497;50.720;-2.084;2023-06-22T06:44:13;12.73;;;6.47;;
64282;SDS011;50497;50.720;-2.084;2023-06-22T06:46:39;13.48;;;6.63;;
64282;SDS011;50497;50.720;-2.084;2023-06-22T06:49:04;12.48;;;6.78;;
64282;SDS011;50497;50.720;-2.084;2023-06-22T06:51:29;14.13;;;7.35;;
64282;SDS011;50497;50.720;-2.084;2023-06-22T06:53:55;11.80;;;6.18;;
64282;SDS011;50497;50.720;-2.084;2023-06-22T06:56:20;12.32;;;6.57;;
64282;SDS011;50497;50.720;-2.084;2023-06-22T07:01:14;11.97;;;6.30;;
64282;SDS011;50497;50.720;-2.084;2023-06-22T07:03:39;12.25;;;6.35;;
64282;SDS011;50497;50.720;-2.084;2023-06-22T07:08:30;11.43;;;5.95;;
64282;SDS011;50497;50.720;-2.084;2023-06-22T07:10:55;11.73;;;6.40;;
64282;SDS011;50497;50.720;-2.084;2023-06-22T07:13:21;10.85;;;5.95;;
64282;SDS011;50497;50.720;-2.084;2023-06-22T07:18:12;12.13;;;6.27;;
64282;SDS011;50497;50.720;-2.084;2023-06-22T07:20:37;11.13;;;6.28;;
64282;SDS011;50497;50.720;-2.084;2023-06-22T07:23:04;12.10;;;5.65;;
64282;SDS011;50497;50.720;-2.084;2023-06-22T07:27:59;10.77;;;6.30;;
64282;SDS011;50497;50.720;-2.084;2023-06-22T07:30:27;14.38;;;7.13;;
64282;SDS011;50497;50.720;-2.084;2023-06-22T07:32:53;10.32;;;6.18;;
64282;SDS011;50497;50.720;-2.084;2023-06-22T07:35:18;10.80;;;6.25;;
64282;SDS011;50497;50.720;-2.084;2023-06-22T07:37:44;13.18;;;5.20;;
64282;SDS011;50497;50.720;-2.084;2023-06-22T07:42:35;8.68;;;5.10;;
64282;SDS011;50497;50.720;-2.084;2023-06-22T07:45:00;10.40;;;4.88;;
64282;SDS011;50497;50.720;-2.084;2023-06-22T07:47:27;9.45;;;4.85;;
64282;SDS011;50497;50.720;-2.084;2023-06-22T07:49:54;9.38;;;5.40;;
64282;SDS011;50497;50.720;-2.084;2023-06-22T07:52:20;10.77;;;5.47;;
64282;SDS011;50497;50.720;-2.084;2023-06-22T07:54:46;9.38;;;5.68;;
64282;SDS011;50497;50.720;-2.084;2023-06-22T07:57:12;10.45;;;5.68;;
64282;SDS011;50497;50.720;-2.084;2023-06-22T07:59:37;10.25;;;5.72;;
64282;SDS011;50497;50.720;-2.084;2023-06-22T08:02:03;9.77;;;5.63;;
64282;SDS011;50497;50.720;-2.084;2023-06-22T08:04:29;9.57;;;5.63;;
64282;SDS011;50497;50.720;-2.084;2023-06-22T08:06:56;9.55;;;5.00;;
64282;SDS011;50497;50.720;-2.084;2023-06-22T08:09:22;11.25;;;5.97;;
64282;SDS011;50497;50.720;-2.084;2023-06-22T08:11:47;9.43;;;5.40;;
64282;SDS011;50497;50.720;-2.084;2023-06-22T08:14:14;9.82;;;5.45;;
64282;SDS011;50497;50.720;-2.084;2023-06-22T08:16:40;9.40;;;4.95;;
64282;SDS011;50497;50.720;-2.084;2023-06-22T08:19:06;9.25;;;4.95;;
64282;SDS011;50497;50.720;-2.084;2023-06-22T08:21:31;10.10;;;5.00;;
64282;SDS011;50497;50.720;-2.084;2023-06-22T08:23:57;10.05;;;4.78;;
64282;SDS011;50497;50.720;-2.084;2023-06-22T08:26:22;10.50;;;4.97;;
64282;SDS011;50497;50.720;-2.084;2023-06-22T08:28:48;8.75;;;4.70;;
64282;SDS011;50497;50.720;-2.084;2023-06-22T08:31:13;9.23;;;4.40;;
64282;SDS011;50497;50.720;-2.084;2023-06-22T08:33:39;9.10;;;4.90;;
64282;SDS011;50497;50.720;-2.084;2023-06-22T08:36:05;8.65;;;4.43;;
64282;SDS011;50497;50.720;-2.084;2023-06-22T08:38:31;8.35;;;4.22;;
64282;SDS011;50497;50.720;-2.084;2023-06-22T08:40:56;8.20;;;4.93;;
64282;SDS011;50497;50.720;-2.084;2023-06-22T08:43:22;9.45;;;4.78;;
64282;SDS011;50497;50.720;-2.084;2023-06-22T08:45:47;9.43;;;5.30;;
64282;SDS011;50497;50.720;-2.084;2023-06-22T08:48:13;8.60;;;4.82;;
64282;SDS011;50497;50.720;-2.084;2023-06-22T08:50:38;7.55;;;4.32;;
64282;SDS011;50497;50.720;-2.084;2023-06-22T08:53:05;7.80;;;4.43;;
64282;SDS011;50497;50.720;-2.084;2023-06-22T08:55:31;7.68;;;4.32;;
64282;SDS011;50497;50.720;-2.084;2023-06-22T08:57:56;8.27;;;4.20;;
64282;SDS011;50497;50.720;-2.084;2023-06-22T09:00:22;7.05;;;4.07;;
64282;SDS011;50497;50.720;-2.084;2023-06-22T09:02:47;7.25;;;4.13;;
64282;SDS011;50497;50.720;-2.084;2023-06-22T09:05:13;7.05;;;4.30;;
64282;SDS011;50497;50.720;-2.084;2023-06-22T09:07:39;7.32;;;4.47;;
64282;SDS011;50497;50.720;-2.084;2023-06-22T09:10:05;9.75;;;5.00;;
64282;SDS011;50497;50.720;-2.084;2023-06-22T09:12:31;7.28;;;4.32;;
64282;SDS011;50497;50.720;-2.084;2023-06-22T09:14:57;7.70;;;4.78;;
64282;SDS011;50497;50.720;-2.084;2023-06-22T09:17:26;8.88;;;5.05;;
64282;SDS011;50497;50.720;-2.084;2023-06-22T09:19:51;7.85;;;4.72;;
64282;SDS011;50497;50.720;-2.084;2023-06-22T09:22:17;8.35;;;4.57;;
64282;SDS011;50497;50.720;-2.084;2023-06-22T09:24:42;9.70;;;4.68;;
64282;SDS011;50497;50.720;-2.084;2023-06-22T09:27:08;9.15;;;4.88;;
64282;SDS011;50497;50.720;-2.084;2023-06-22T09:29:33;8.10;;;5.40;;
64282;SDS011;50497;50.720;-2.084;2023-06-22T09:31:59;8.13;;;4.60;;
64282;SDS011;50497;50.720;-2.084;2023-06-22T09:34:25;8.00;;;4.95;;
64282;SDS011;50497;50.720;-2.084;2023-06-22T09:36:50;8.50;;;5.00;;
64282;SDS011;50497;50.720;-2.084;2023-06-22T09:39:16;8.40;;;5.05;;
64282;SDS011;50497;50.720;-2.084;2023-06-22T09:41:42;9.57;;;4.80;;
64282;SDS011;50497;50.720;-2.084;2023-06-22T09:44:08;7.40;;;4.55;;
64282;SDS011;50497;50.720;-2.084;2023-06-22T09:46:33;9.82;;;5.40;;
64282;SDS011;50497;50.720;-2.084;2023-06-22T09:48:59;7.30;;;4.70;;
64282;SDS011;50497;50.720;-2.084;2023-06-22T09:51:24;9.20;;;5.30;;
64282;SDS011;50497;50.720;-2.084;2023-06-22T09:53:50;9.50;;;5.05;;
64282;SDS011;50497;50.720;-2.084;2023-06-22T09:56:16;9.55;;;5.20;;
64282;SDS011;50497;50.720;-2.084;2023-06-22T09:58:42;7.45;;;5.03;;
64282;SDS011;50497;50.720;-2.084;2023-06-22T10:01:08;8.07;;;4.70;;
64282;SDS011;50497;50.720;-2.084;2023-06-22T10:03:33;8.70;;;5.10;;
64282;SDS011;50497;50.720;-2.084;2023-06-22T10:05:59;7.40;;;4.75;;
64282;SDS011;50497;50.720;-2.084;2023-06-22T10:08:24;7.88;;;4.80;;
64282;SDS011;50497;50.720;-2.084;2023-06-22T10:10:49;8.63;;;4.60;;
64282;SDS011;50497;50.720;-2.084;2023-06-22T10:13:15;9.05;;;4.90;;
64282;SDS011;50497;50.720;-2.084;2023-06-22T10:15:41;8.40;;;4.90;;
64282;SDS011;50497;50.720;-2.084;2023-06-22T10:18:07;8.50;;;4.18;;
64282;SDS011;50497;50.720;-2.084;2023-06-22T10:20:33;7.32;;;4.28;;
64282;SDS011;50497;50.720;-2.084;2023-06-22T10:22:58;7.15;;;4.40;;
64282;SDS011;50497;50.720;-2.084;2023-06-22T10:25:23;7.30;;;4.07;;
64282;SDS011;50497;50.720;-2.084;2023-06-22T10:27:49;7.18;;;4.50;;
64282;SDS011;50497;50.720;-2.084;2023-06-22T10:30:14;6.50;;;4.15;;
64282;SDS011;50497;50.720;-2.084;2023-06-22T10:32:40;6.97;;;3.78;;
64282;SDS011;50497;50.720;-2.084;2023-06-22T10:35:08;8.45;;;4.18;;
64282;SDS011;50497;50.720;-2.084;2023-06-22T10:37:35;6.40;;;3.97;;
64282;SDS011;50497;50.720;-2.084;2023-06-22T10:40:01;7.18;;;4.03;;
64282;SDS011;50497;50.720;-2.084;2023-06-22T10:42:27;7.30;;;3.80;;
64282;SDS011;50497;50.720;-2.084;2023-06-22T10:44:53;7.13;;;4.20;;
64282;SDS011;50497;50.720;-2.084;2023-06-22T10:47:18;6.03;;;3.90;;
64282;SDS011;50497;50.720;-2.084;2023-06-22T10:49:43;7.30;;;3.45;;
64282;SDS011;50497;50.720;-2.084;2023-06-22T10:52:09;7.35;;;3.90;;
64282;SDS011;50497;50.720;-2.084;2023-06-22T10:54:35;7.07;;;3.67;;
64282;SDS011;50497;50.720;-2.084;2023-06-22T10:57:01;7.57;;;3.85;;
64282;SDS011;50497;50.720;-2.084;2023-06-22T10:59:26;6.05;;;3.70;;
64282;SDS011;50497;50.720;-2.084;2023-06-22T11:01:53;6.40;;;3.70;;
64282;SDS011;50497;50.720;-2.084;2023-06-22T11:04:20;6.40;;;3.70;;
64282;SDS011;50497;50.720;-2.084;2023-06-22T11:06:45;7.63;;;3.88;;
64282;SDS011;50497;50.720;-2.084;2023-06-22T11:09:11;6.97;;;4.25;;
64282;SDS011;50497;50.720;-2.084;2023-06-22T11:11:36;8.80;;;4.47;;
64282;SDS011;50497;50.720;-2.084;2023-06-22T11:14:02;6.55;;;3.70;;
64282;SDS011;50497;50.720;-2.084;2023-06-22T11:16:33;6.78;;;3.40;;
64282;SDS011;50497;50.720;-2.084;2023-06-22T11:18:59;7.65;;;4.03;;
64282;SDS011;50497;50.720;-2.084;2023-06-22T11:21:25;7.35;;;4.15;;
64282;SDS011;50497;50.720;-2.084;2023-06-22T11:23:50;6.35;;;3.70;;
64282;SDS011;50497;50.720;-2.084;2023-06-22T11:26:15;6.80;;;3.88;;
64282;SDS011;50497;50.720;-2.084;2023-06-22T11:28:41;6.80;;;4.05;;
64282;SDS011;50497;50.720;-2.084;2023-06-22T11:31:06;7.13;;;3.88;;
64282;SDS011;50497;50.720;-2.084;2023-06-22T11:33:32;7.10;;;4.28;;
64282;SDS011;50497;50.720;-2.084;2023-06-22T11:35:57;6.35;;;3.92;;
64282;SDS011;50497;50.720;-2.084;2023-06-22T11:38:22;9.23;;;4.80;;
64282;SDS011;50497;50.720;-2.084;2023-06-22T11:40:48;6.78;;;4.00;;
64282;SDS011;50497;50.720;-2.084;2023-06-22T11:43:13;7.00;;;4.40;;
64282;SDS011;50497;50.720;-2.084;2023-06-22T11:45:40;6.75;;;3.85;;
64282;SDS011;50497;50.720;-2.084;2023-06-22T11:48:05;7.28;;;4.55;;
64282;SDS011;50497;50.720;-2.084;2023-06-22T11:50:31;8.38;;;4.25;;
64282;SDS011;50497;50.720;-2.084;2023-06-22T11:53:00;6.05;;;3.83;;
64282;SDS011;50497;50.720;-2.084;2023-06-22T11:55:26;6.75;;;3.63;;
64282;SDS011;50497;50.720;-2.084;2023-06-22T11:57:53;6.90;;;4.25;;
64282;SDS011;50497;50.720;-2.084;2023-06-22T12:00:24;6.32;;;3.97;;
64282;SDS011;50497;50.720;-2.084;2023-06-22T12:02:50;5.93;;;3.58;;
64282;SDS011;50497;50.720;-2.084;2023-06-22T12:05:19;2.53;;;1.27;;
64282;SDS011;50497;50.720;-2.084;2023-06-22T12:07:46;0.00;;;0.00;;
64282;SDS011;50497;50.720;-2.084;2023-06-22T12:10:11;0.00;;;0.00;;
64282;SDS011;50497;50.720;-2.084;2023-06-22T12:12:36;0.00;;;0.00;;
64282;SDS011;50497;50.720;-2.084;2023-06-22T12:15:02;0.10;;;0.10;;
64282;SDS011;50497;50.720;-2.084;2023-06-22T12:17:29;0.00;;;0.00;;
64282;SDS011;50497;50.720;-2.084;2023-06-22T12:19:55;0.00;;;0.00;;
64282;SDS011;50497;50.720;-2.084;2023-06-22T12:22:20;0.00;;;0.00;;
64282;SDS011;50497;50.720;-2.084;2023-06-22T12:24:46;0.00;;;0.00;;
64282;SDS011;50497;50.720;-2.084;2023-06-22T12:27:11;0.00;;;0.00;;
64282;SDS011;50497;50.720;-2.084;2023-06-22T12:29:37;0.00;;;0.00;;
64282;SDS011;50497;50.720;-2.084;2023-06-22T12:32:02;0.00;;;0.00;;
64282;SDS011;50497;50.720;-2.084;2023-06-22T12:34:28;0.00;;;0.00;;
64282;SDS011;50497;50.720;-2.084;2023-06-22T12:36:53;0.00;;;0.00;;
64282;SDS011;50497;50.720;-2.084;2023-06-22T12:39:19;0.00;;;0.00;;
64282;SDS011;50497;50.720;-2.084;2023-06-22T12:41:45;0.03;;;0.03;;
64282;SDS011;50497;50.720;-2.084;2023-06-22T12:44:10;0.10;;;0.10;;
64282;SDS011;50497;50.720;-2.084;2023-06-22T12:46:36;0.00;;;0.00;;
64282;SDS011;50497;50.720;-2.084;2023-06-22T12:49:03;0.00;;;0.00;;
64282;SDS011;50497;50.720;-2.084;2023-06-22T12:51:29;0.00;;;0.00;;
64282;SDS011;50497;50.720;-2.084;2023-06-22T12:53:55;0.00;;;0.00;;
64282;SDS011;50497;50.720;-2.084;2023-06-22T12:56:20;0.00;;;0.00;;
64282;SDS011;50497;50.720;-2.084;2023-06-22T12:58:46;0.00;;;0.00;;
64282;SDS011;50497;50.720;-2.084;2023-06-22T13:01:11;0.00;;;0.00;;
64282;SDS011;50497;50.720;-2.084;2023-06-22T13:03:36;0.00;;;0.00;;
64282;SDS011;50497;50.720;-2.084;2023-06-22T13:06:02;0.00;;;0.00;;
64282;SDS011;50497;50.720;-2.084;2023-06-22T13:08:28;0.00;;;0.00;;
64282;SDS011;50497;50.720;-2.084;2023-06-22T13:10:54;0.00;;;0.00;;
64282;SDS011;50497;50.720;-2.084;2023-06-22T13:13:23;0.00;;;0.00;;
64282;SDS011;50497;50.720;-2.084;2023-06-22T13:15:50;0.00;;;0.00;;
64282;SDS011;50497;50.720;-2.084;2023-06-22T13:18:15;0.00;;;0.00;;
64282;SDS011;50497;50.720;-2.084;2023-06-22T13:20:41;0.00;;;0.00;;
64282;SDS011;50497;50.720;-2.084;2023-06-22T13:23:06;0.05;;;0.05;;
64282;SDS011;50497;50.720;-2.084;2023-06-22T13:25:32;0.08;;;0.08;;
64282;SDS011;50497;50.720;-2.084;2023-06-22T13:27:57;0.03;;;0.03;;
64282;SDS011;50497;50.720;-2.084;2023-06-22T13:30:22;0.00;;;0.00;;
64282;SDS011;50497;50.720;-2.084;2023-06-22T13:32:48;0.00;;;0.00;;
64282;SDS011;50497;50.720;-2.084;2023-06-22T13:35:13;0.00;;;0.00;;
64282;SDS011;50497;50.720;-2.084;2023-06-22T13:37:39;0.00;;;0.00;;
64282;SDS011;50497;50.720;-2.084;2023-06-22T13:40:07;0.00;;;0.00;;
64282;SDS011;50497;50.720;-2.084;2023-06-22T13:42:33;0.00;;;0.00;;
64282;SDS011;50497;50.720;-2.084;2023-06-22T13:44:59;0.03;;;0.03;;
64282;SDS011;50497;50.720;-2.084;2023-06-22T13:47:24;0.10;;;0.10;;
64282;SDS011;50497;50.720;-2.084;2023-06-22T13:49:50;0.00;;;0.00;;
64282;SDS011;50497;50.720;-2.084;2023-06-22T13:52:15;0.00;;;0.00;;
64282;SDS011;50497;50.720;-2.084;2023-06-22T13:54:40;0.00;;;0.00;;
64282;SDS011;50497;50.720;-2.084;2023-06-22T13:57:09;0.00;;;0.00;;
64282;SDS011;50497;50.720;-2.084;2023-06-22T13:59:34;0.00;;;0.00;;
64282;SDS011;50497;50.720;-2.084;2023-06-22T14:01:59;0.00;;;0.00;;
64282;SDS011;50497;50.720;-2.084;2023-06-22T14:04:25;0.10;;;0.10;;
64282;SDS011;50497;50.720;-2.084;2023-06-22T14:06:51;0.03;;;0.03;;
64282;SDS011;50497;50.720;-2.084;2023-06-22T14:09:17;0.03;;;0.03;;
64282;SDS011;50497;50.720;-2.084;2023-06-22T14:11:42;0.00;;;0.00;;
64282;SDS011;50497;50.720;-2.084;2023-06-22T14:14:07;0.00;;;0.00;;
64282;SDS011;50497;50.720;-2.084;2023-06-22T14:16:33;0.00;;;0.00;;
64282;SDS011;50497;50.720;-2.084;2023-06-22T14:18:58;0.00;;;0.00;;
64282;SDS011;50497;50.720;-2.084;2023-06-22T14:21:24;0.10;;;0.10;;
64282;SDS011;50497;50.720;-2.084;2023-06-22T14:23:50;0.00;;;0.00;;
64282;SDS011;50497;50.720;-2.084;2023-06-22T14:26:16;0.00;;;0.00;;
64282;SDS011;50497;50.720;-2.084;2023-06-22T14:28:47;0.00;;;0.00;;
64282;SDS011;50497;50.720;-2.084;2023-06-22T14:31:15;0.00;;;0.00;;
64282;SDS011;50497;50.720;-2.084;2023-06-22T14:33:45;0.03;;;0.03;;
64282;SDS011;50497;50.720;-2.084;2023-06-22T14:36:15;0.00;;;0.00;;
64282;SDS011;50497;50.720;-2.084;2023-06-22T14:38:41;0.00;;;0.00;;
64282;SDS011;50497;50.720;-2.084;2023-06-22T14:41:06;0.00;;;0.00;;
64282;SDS011;50497;50.720;-2.084;2023-06-22T14:43:32;0.00;;;0.00;;
64282;SDS011;50497;50.720;-2.084;2023-06-22T14:45:57;0.00;;;0.00;;
64282;SDS011;50497;50.720;-2.084;2023-06-22T14:48:22;0.00;;;0.00;;
64282;SDS011;50497;50.720;-2.084;2023-06-22T14:50:48;0.00;;;0.00;;
64282;SDS011;50497;50.720;-2.084;2023-06-22T14:53:14;0.00;;;0.00;;
64282;SDS011;50497;50.720;-2.084;2023-06-22T14:55:39;0.05;;;0.05;;
64282;SDS011;50497;50.720;-2.084;2023-06-22T14:58:05;0.00;;;0.00;;